sensor_id;sensor_type;location;lat;lon;timestamp;temperature;humidity
67050;DHT22;53955;52.442;13.284;2023-01-15T00:00:56;10.20;84.30
67050;DHT22;53955;52.442;13.284;2023-01-15T00:03:23;10.30;83.80
67050;DHT22;53955;52.442;13.284;2023-01-15T00:05:49;10.30;84.30
67050;DHT22;53955;52.442;13.284;2023-01-15T00:08:17;10.20;84.70
67050;DHT22;53955;52.442;13.284;2023-01-15T00:10:44;10.20;84.50
67050;DHT22;53955;52.442;13.284;2023-01-15T00:13:11;10.30;84.40
67050;DHT22;53955;52.442;13.284;2023-01-15T00:15:37;10.30;84.20
67050;DHT22;53955;52.442;13.284;2023-01-15T00:18:04;10.30;83.80
67050;DHT22;53955;52.442;13.284;2023-01-15T00:20:31;10.30;83.70
67050;DHT22;53955;52.442;13.284;2023-01-15T00:22:57;10.30;83.90
67050;DHT22;53955;52.442;13.284;2023-01-15T00:25:25;10.40;83.90
67050;DHT22;53955;52.442;13.284;2023-01-15T00:28:11;10.40;83.40
67050;DHT22;53955;52.442;13.284;2023-01-15T00:30:39;10.50;83.80
67050;DHT22;53955;52.442;13.284;2023-01-15T00:33:06;10.50;83.60
67050;DHT22;53955;52.442;13.284;2023-01-15T00:35:33;10.50;83.50
67050;DHT22;53955;52.442;13.284;2023-01-15T00:38:00;10.60;83.40
67050;DHT22;53955;52.442;13.284;2023-01-15T00:40:27;10.50;83.30
67050;DHT22;53955;52.442;13.284;2023-01-15T00:42:54;10.40;83.20
67050;DHT22;53955;52.442;13.284;2023-01-15T00:45:21;10.50;83.20
67050;DHT22;53955;52.442;13.284;2023-01-15T00:47:48;10.50;83.10
67050;DHT22;53955;52.442;13.284;2023-01-15T00:50:15;10.50;82.80
67050;DHT22;53955;52.442;13.284;2023-01-15T00:52:41;10.50;82.80
67050;DHT22;53955;52.442;13.284;2023-01-15T00:55:08;10.50;83.00
67050;DHT22;53955;52.442;13.284;2023-01-15T00:57:36;10.60;82.90
67050;DHT22;53955;52.442;13.284;2023-01-15T01:00:04;10.60;83.70
67050;DHT22;53955;52.442;13.284;2023-01-15T01:02:30;10.60;83.10
67050;DHT22;53955;52.442;13.284;2023-01-15T01:04:57;10.60;82.80
67050;DHT22;53955;52.442;13.284;2023-01-15T01:07:23;10.60;82.70
67050;DHT22;53955;52.442;13.284;2023-01-15T01:09:50;10.70;82.70
67050;DHT22;53955;52.442;13.284;2023-01-15T01:12:16;10.60;82.60
67050;DHT22;53955;52.442;13.284;2023-01-15T01:14:46;10.70;82.80
67050;DHT22;53955;52.442;13.284;2023-01-15T01:17:13;10.70;82.80
67050;DHT22;53955;52.442;13.284;2023-01-15T01:19:40;10.70;83.00
67050;DHT22;53955;52.442;13.284;2023-01-15T01:22:06;10.70;83.00
67050;DHT22;53955;52.442;13.284;2023-01-15T01:24:33;10.60;83.10
67050;DHT22;53955;52.442;13.284;2023-01-15T01:26:59;10.70;83.10
67050;DHT22;53955;52.442;13.284;2023-01-15T01:29:26;10.70;83.20
67050;DHT22;53955;52.442;13.284;2023-01-15T01:31:54;10.70;83.00
67050;DHT22;53955;52.442;13.284;2023-01-15T01:34:21;10.80;82.70
67050;DHT22;53955;52.442;13.284;2023-01-15T01:36:47;10.80;82.90
67050;DHT22;53955;52.442;13.284;2023-01-15T01:39:15;10.80;82.60
67050;DHT22;53955;52.442;13.284;2023-01-15T01:41:42;10.90;82.40
67050;DHT22;53955;52.442;13.284;2023-01-15T01:47:13;10.80;82.80
67050;DHT22;53955;52.442;13.284;2023-01-15T01:49:44;10.90;82.60
67050;DHT22;53955;52.442;13.284;2023-01-15T01:52:13;10.90;83.10
67050;DHT22;53955;52.442;13.284;2023-01-15T01:54:41;10.90;83.60
67050;DHT22;53955;52.442;13.284;2023-01-15T01:57:09;10.90;83.70
67050;DHT22;53955;52.442;13.284;2023-01-15T01:59:36;10.80;84.40
67050;DHT22;53955;52.442;13.284;2023-01-15T02:02:04;10.70;84.50
67050;DHT22;53955;52.442;13.284;2023-01-15T02:04:32;10.90;84.80
67050;DHT22;53955;52.442;13.284;2023-01-15T02:07:00;10.80;85.30
67050;DHT22;53955;52.442;13.284;2023-01-15T02:09:26;10.90;85.10
67050;DHT22;53955;52.442;13.284;2023-01-15T02:11:56;10.80;85.60
67050;DHT22;53955;52.442;13.284;2023-01-15T02:14:27;10.80;85.80
67050;DHT22;53955;52.442;13.284;2023-01-15T02:16:59;10.70;86.10
67050;DHT22;53955;52.442;13.284;2023-01-15T02:19:41;10.70;86.60
67050;DHT22;53955;52.442;13.284;2023-01-15T02:22:20;10.70;87.10
67050;DHT22;53955;52.442;13.284;2023-01-15T02:24:59;10.60;87.00
67050;DHT22;53955;52.442;13.284;2023-01-15T02:27:31;10.60;87.50
67050;DHT22;53955;52.442;13.284;2023-01-15T02:30:02;10.60;88.10
67050;DHT22;53955;52.442;13.284;2023-01-15T02:32:37;10.60;88.40
67050;DHT22;53955;52.442;13.284;2023-01-15T02:35:07;10.60;88.40
67050;DHT22;53955;52.442;13.284;2023-01-15T02:37:39;10.60;88.40
67050;DHT22;53955;52.442;13.284;2023-01-15T02:40:08;10.60;88.10
67050;DHT22;53955;52.442;13.284;2023-01-15T02:42:38;10.70;88.70
67050;DHT22;53955;52.442;13.284;2023-01-15T02:45:08;10.70;88.30
67050;DHT22;53955;52.442;13.284;2023-01-15T02:47:37;10.70;88.70
67050;DHT22;53955;52.442;13.284;2023-01-15T02:50:12;10.70;88.90
67050;DHT22;53955;52.442;13.284;2023-01-15T02:52:42;10.70;88.80
67050;DHT22;53955;52.442;13.284;2023-01-15T02:55:13;10.70;88.50
67050;DHT22;53955;52.442;13.284;2023-01-15T02:57:44;10.80;89.10
67050;DHT22;53955;52.442;13.284;2023-01-15T03:00:14;10.70;88.70
67050;DHT22;53955;52.442;13.284;2023-01-15T03:02:45;10.70;89.30
67050;DHT22;53955;52.442;13.284;2023-01-15T03:05:16;10.80;89.00
67050;DHT22;53955;52.442;13.284;2023-01-15T03:07:47;10.80;89.00
67050;DHT22;53955;52.442;13.284;2023-01-15T03:10:15;10.70;89.60
67050;DHT22;53955;52.442;13.284;2023-01-15T03:12:46;10.70;89.30
67050;DHT22;53955;52.442;13.284;2023-01-15T03:15:40;10.70;89.70
67050;DHT22;53955;52.442;13.284;2023-01-15T03:18:28;10.70;89.20
67050;DHT22;53955;52.442;13.284;2023-01-15T03:20:59;10.70;89.60
67050;DHT22;53955;52.442;13.284;2023-01-15T03:23:29;10.90;89.10
67050;DHT22;53955;52.442;13.284;2023-01-15T03:25:56;10.90;89.30
67050;DHT22;53955;52.442;13.284;2023-01-15T03:28:25;11.00;89.90
67050;DHT22;53955;52.442;13.284;2023-01-15T03:30:53;11.00;89.30
67050;DHT22;53955;52.442;13.284;2023-01-15T03:33:19;10.90;89.10
67050;DHT22;53955;52.442;13.284;2023-01-15T03:35:48;11.00;89.60
67050;DHT22;53955;52.442;13.284;2023-01-15T03:38:17;11.00;88.90
67050;DHT22;53955;52.442;13.284;2023-01-15T03:43:18;11.10;89.50
67050;DHT22;53955;52.442;13.284;2023-01-15T03:46:11;11.10;89.50
67050;DHT22;53955;52.442;13.284;2023-01-15T03:48:43;11.00;89.60
67050;DHT22;53955;52.442;13.284;2023-01-15T03:51:19;11.20;89.30
67050;DHT22;53955;52.442;13.284;2023-01-15T03:53:49;11.20;89.40
67050;DHT22;53955;52.442;13.284;2023-01-15T03:56:20;11.20;89.20
67050;DHT22;53955;52.442;13.284;2023-01-15T03:58:53;11.20;89.10
67050;DHT22;53955;52.442;13.284;2023-01-15T04:01:25;11.20;88.90
67050;DHT22;53955;52.442;13.284;2023-01-15T04:03:53;11.20;89.10
67050;DHT22;53955;52.442;13.284;2023-01-15T04:06:21;11.30;89.20
67050;DHT22;53955;52.442;13.284;2023-01-15T04:08:49;11.20;89.50
67050;DHT22;53955;52.442;13.284;2023-01-15T04:11:21;11.20;89.10
67050;DHT22;53955;52.442;13.284;2023-01-15T04:13:48;11.20;89.10
67050;DHT22;53955;52.442;13.284;2023-01-15T04:16:16;11.10;88.30
67050;DHT22;53955;52.442;13.284;2023-01-15T04:18:46;11.10;88.20
67050;DHT22;53955;52.442;13.284;2023-01-15T04:21:12;10.90;87.70
67050;DHT22;53955;52.442;13.284;2023-01-15T04:23:39;10.70;84.50
67050;DHT22;53955;52.442;13.284;2023-01-15T04:26:05;10.50;83.90
67050;DHT22;53955;52.442;13.284;2023-01-15T04:28:33;10.20;82.40
67050;DHT22;53955;52.442;13.284;2023-01-15T04:30:59;10.00;82.60
67050;DHT22;53955;52.442;13.284;2023-01-15T04:33:26;9.90;83.10
67050;DHT22;53955;52.442;13.284;2023-01-15T04:35:54;9.80;82.20
67050;DHT22;53955;52.442;13.284;2023-01-15T04:38:20;9.70;81.80
67050;DHT22;53955;52.442;13.284;2023-01-15T04:40:47;9.60;82.00
67050;DHT22;53955;52.442;13.284;2023-01-15T04:43:31;9.50;80.80
67050;DHT22;53955;52.442;13.284;2023-01-15T04:46:19;9.40;81.30
67050;DHT22;53955;52.442;13.284;2023-01-15T04:48:46;9.30;80.90
67050;DHT22;53955;52.442;13.284;2023-01-15T04:51:13;9.30;79.70
67050;DHT22;53955;52.442;13.284;2023-01-15T04:53:40;9.10;78.90
67050;DHT22;53955;52.442;13.284;2023-01-15T04:56:07;9.10;79.70
67050;DHT22;53955;52.442;13.284;2023-01-15T04:58:34;9.10;79.00
67050;DHT22;53955;52.442;13.284;2023-01-15T05:01:01;9.10;78.20
67050;DHT22;53955;52.442;13.284;2023-01-15T05:03:30;9.00;78.90
67050;DHT22;53955;52.442;13.284;2023-01-15T05:06:00;9.00;78.70
67050;DHT22;53955;52.442;13.284;2023-01-15T05:08:28;9.10;79.30
67050;DHT22;53955;52.442;13.284;2023-01-15T05:10:55;9.10;78.50
67050;DHT22;53955;52.442;13.284;2023-01-15T05:13:22;9.10;80.20
67050;DHT22;53955;52.442;13.284;2023-01-15T05:15:48;9.10;79.50
67050;DHT22;53955;52.442;13.284;2023-01-15T05:18:15;9.10;80.10
67050;DHT22;53955;52.442;13.284;2023-01-15T05:20:42;9.20;79.70
67050;DHT22;53955;52.442;13.284;2023-01-15T05:23:09;9.20;78.70
67050;DHT22;53955;52.442;13.284;2023-01-15T05:25:37;9.20;79.10
67050;DHT22;53955;52.442;13.284;2023-01-15T05:28:04;9.20;78.20
67050;DHT22;53955;52.442;13.284;2023-01-15T05:30:30;9.20;78.90
67050;DHT22;53955;52.442;13.284;2023-01-15T05:32:57;9.20;79.40
67050;DHT22;53955;52.442;13.284;2023-01-15T05:35:23;9.20;79.80
67050;DHT22;53955;52.442;13.284;2023-01-15T05:37:50;9.20;79.90
67050;DHT22;53955;52.442;13.284;2023-01-15T05:40:17;9.30;79.30
67050;DHT22;53955;52.442;13.284;2023-01-15T05:42:45;9.20;79.60
67050;DHT22;53955;52.442;13.284;2023-01-15T05:45:11;9.20;79.90
67050;DHT22;53955;52.442;13.284;2023-01-15T05:47:38;9.20;79.20
67050;DHT22;53955;52.442;13.284;2023-01-15T05:50:05;9.30;78.70
67050;DHT22;53955;52.442;13.284;2023-01-15T05:52:31;9.20;79.00
67050;DHT22;53955;52.442;13.284;2023-01-15T05:54:58;9.20;79.10
67050;DHT22;53955;52.442;13.284;2023-01-15T05:57:24;9.30;79.10
67050;DHT22;53955;52.442;13.284;2023-01-15T05:59:52;9.30;79.50
67050;DHT22;53955;52.442;13.284;2023-01-15T06:02:20;9.40;79.90
67050;DHT22;53955;52.442;13.284;2023-01-15T06:04:47;9.30;80.20
67050;DHT22;53955;52.442;13.284;2023-01-15T06:07:13;9.40;80.20
67050;DHT22;53955;52.442;13.284;2023-01-15T06:09:41;9.30;80.30
67050;DHT22;53955;52.442;13.284;2023-01-15T06:12:08;9.40;79.90
67050;DHT22;53955;52.442;13.284;2023-01-15T06:14:35;9.40;80.40
67050;DHT22;53955;52.442;13.284;2023-01-15T06:17:03;9.40;80.60
67050;DHT22;53955;52.442;13.284;2023-01-15T06:19:30;9.40;80.70
67050;DHT22;53955;52.442;13.284;2023-01-15T06:21:56;9.40;80.60
67050;DHT22;53955;52.442;13.284;2023-01-15T06:24:23;9.50;80.50
67050;DHT22;53955;52.442;13.284;2023-01-15T06:26:49;9.50;80.00
67050;DHT22;53955;52.442;13.284;2023-01-15T06:29:16;9.40;80.10
67050;DHT22;53955;52.442;13.284;2023-01-15T06:31:43;9.40;79.90
67050;DHT22;53955;52.442;13.284;2023-01-15T06:34:10;9.40;80.40
67050;DHT22;53955;52.442;13.284;2023-01-15T06:36:37;9.50;80.10
67050;DHT22;53955;52.442;13.284;2023-01-15T06:39:04;9.40;79.80
67050;DHT22;53955;52.442;13.284;2023-01-15T06:41:30;9.50;79.10
67050;DHT22;53955;52.442;13.284;2023-01-15T06:44:16;9.30;79.80
67050;DHT22;53955;52.442;13.284;2023-01-15T06:47:02;9.30;80.40
67050;DHT22;53955;52.442;13.284;2023-01-15T06:49:48;9.30;79.70
67050;DHT22;53955;52.442;13.284;2023-01-15T06:52:15;9.40;79.30
67050;DHT22;53955;52.442;13.284;2023-01-15T06:54:42;9.30;78.40
67050;DHT22;53955;52.442;13.284;2023-01-15T06:57:08;9.20;78.80
67050;DHT22;53955;52.442;13.284;2023-01-15T06:59:35;9.20;78.50
67050;DHT22;53955;52.442;13.284;2023-01-15T07:02:01;9.20;78.60
67050;DHT22;53955;52.442;13.284;2023-01-15T07:04:28;9.20;79.20
67050;DHT22;53955;52.442;13.284;2023-01-15T07:06:56;9.10;79.50
67050;DHT22;53955;52.442;13.284;2023-01-15T07:09:23;9.10;79.90
67050;DHT22;53955;52.442;13.284;2023-01-15T07:11:50;9.10;79.70
67050;DHT22;53955;52.442;13.284;2023-01-15T07:14:17;9.10;79.10
67050;DHT22;53955;52.442;13.284;2023-01-15T07:16:44;9.10;79.80
67050;DHT22;53955;52.442;13.284;2023-01-15T07:19:11;9.20;78.60
67050;DHT22;53955;52.442;13.284;2023-01-15T07:21:38;9.00;78.80
67050;DHT22;53955;52.442;13.284;2023-01-15T07:24:07;9.00;79.20
67050;DHT22;53955;52.442;13.284;2023-01-15T07:26:35;9.00;79.70
67050;DHT22;53955;52.442;13.284;2023-01-15T07:29:02;9.00;79.40
67050;DHT22;53955;52.442;13.284;2023-01-15T07:31:30;8.80;79.10
67050;DHT22;53955;52.442;13.284;2023-01-15T07:33:56;8.80;79.30
67050;DHT22;53955;52.442;13.284;2023-01-15T07:36:23;8.80;79.70
67050;DHT22;53955;52.442;13.284;2023-01-15T07:38:50;8.90;79.50
67050;DHT22;53955;52.442;13.284;2023-01-15T07:41:18;8.90;79.50
67050;DHT22;53955;52.442;13.284;2023-01-15T07:44:03;8.80;79.10
67050;DHT22;53955;52.442;13.284;2023-01-15T07:46:47;8.70;79.70
67050;DHT22;53955;52.442;13.284;2023-01-15T07:49:31;8.80;79.30
67050;DHT22;53955;52.442;13.284;2023-01-15T07:52:14;8.90;79.80
67050;DHT22;53955;52.442;13.284;2023-01-15T07:54:41;8.80;79.30
67050;DHT22;53955;52.442;13.284;2023-01-15T07:57:10;8.90;78.90
67050;DHT22;53955;52.442;13.284;2023-01-15T07:59:37;8.90;78.40
67050;DHT22;53955;52.442;13.284;2023-01-15T08:02:03;8.90;79.50
67050;DHT22;53955;52.442;13.284;2023-01-15T08:04:30;8.90;78.30
67050;DHT22;53955;52.442;13.284;2023-01-15T08:06:58;8.80;79.30
67050;DHT22;53955;52.442;13.284;2023-01-15T08:09:25;8.80;79.50
67050;DHT22;53955;52.442;13.284;2023-01-15T08:11:51;8.90;79.40
67050;DHT22;53955;52.442;13.284;2023-01-15T08:14:37;8.90;78.50
67050;DHT22;53955;52.442;13.284;2023-01-15T08:17:21;8.90;78.80
67050;DHT22;53955;52.442;13.284;2023-01-15T08:19:48;8.80;78.90
67050;DHT22;53955;52.442;13.284;2023-01-15T08:22:14;8.80;79.10
67050;DHT22;53955;52.442;13.284;2023-01-15T08:24:41;9.00;79.10
67050;DHT22;53955;52.442;13.284;2023-01-15T08:27:07;9.00;78.50
67050;DHT22;53955;52.442;13.284;2023-01-15T08:29:34;9.10;77.80
67050;DHT22;53955;52.442;13.284;2023-01-15T08:32:02;9.00;78.40
67050;DHT22;53955;52.442;13.284;2023-01-15T08:34:29;9.10;78.30
67050;DHT22;53955;52.442;13.284;2023-01-15T08:36:55;9.00;77.30
67050;DHT22;53955;52.442;13.284;2023-01-15T08:39:25;9.00;77.40
67050;DHT22;53955;52.442;13.284;2023-01-15T08:41:51;9.00;77.90
67050;DHT22;53955;52.442;13.284;2023-01-15T08:44:18;9.10;77.30
67050;DHT22;53955;52.442;13.284;2023-01-15T08:46:46;9.00;76.90
67050;DHT22;53955;52.442;13.284;2023-01-15T08:49:14;8.90;76.40
67050;DHT22;53955;52.442;13.284;2023-01-15T08:51:42;9.00;77.00
67050;DHT22;53955;52.442;13.284;2023-01-15T08:54:09;8.90;76.20
67050;DHT22;53955;52.442;13.284;2023-01-15T08:56:35;9.00;76.60
67050;DHT22;53955;52.442;13.284;2023-01-15T08:59:03;9.00;77.20
67050;DHT22;53955;52.442;13.284;2023-01-15T09:01:32;8.90;75.20
67050;DHT22;53955;52.442;13.284;2023-01-15T09:03:59;9.00;75.90
67050;DHT22;53955;52.442;13.284;2023-01-15T09:06:27;9.00;76.60
67050;DHT22;53955;52.442;13.284;2023-01-15T09:08:53;9.00;76.00
67050;DHT22;53955;52.442;13.284;2023-01-15T09:11:20;9.00;77.20
67050;DHT22;53955;52.442;13.284;2023-01-15T09:13:46;9.20;75.60
67050;DHT22;53955;52.442;13.284;2023-01-15T09:16:16;9.20;74.60
67050;DHT22;53955;52.442;13.284;2023-01-15T09:18:43;9.10;75.00
67050;DHT22;53955;52.442;13.284;2023-01-15T09:21:09;9.20;75.20
67050;DHT22;53955;52.442;13.284;2023-01-15T09:23:37;9.10;75.20
67050;DHT22;53955;52.442;13.284;2023-01-15T09:26:05;9.20;74.80
67050;DHT22;53955;52.442;13.284;2023-01-15T09:28:34;9.20;75.80
67050;DHT22;53955;52.442;13.284;2023-01-15T09:31:01;9.20;74.60
67050;DHT22;53955;52.442;13.284;2023-01-15T09:33:27;9.20;74.20
67050;DHT22;53955;52.442;13.284;2023-01-15T09:35:54;9.20;75.80
67050;DHT22;53955;52.442;13.284;2023-01-15T09:38:20;9.20;74.90
67050;DHT22;53955;52.442;13.284;2023-01-15T09:40:50;9.20;74.30
67050;DHT22;53955;52.442;13.284;2023-01-15T09:43:25;9.20;73.90
67050;DHT22;53955;52.442;13.284;2023-01-15T09:45:57;9.30;75.10
67050;DHT22;53955;52.442;13.284;2023-01-15T09:48:37;9.30;74.80
67050;DHT22;53955;52.442;13.284;2023-01-15T09:51:15;9.40;73.90
67050;DHT22;53955;52.442;13.284;2023-01-15T09:56:37;9.30;72.70
67050;DHT22;53955;52.442;13.284;2023-01-15T09:59:08;9.40;72.80
67050;DHT22;53955;52.442;13.284;2023-01-15T10:01:41;9.40;72.90
67050;DHT22;53955;52.442;13.284;2023-01-15T10:04:14;9.40;70.90
67050;DHT22;53955;52.442;13.284;2023-01-15T10:06:44;9.40;71.80
67050;DHT22;53955;52.442;13.284;2023-01-15T10:09:19;9.40;71.60
67050;DHT22;53955;52.442;13.284;2023-01-15T10:11:51;9.50;70.40
67050;DHT22;53955;52.442;13.284;2023-01-15T10:14:44;9.60;70.20
67050;DHT22;53955;52.442;13.284;2023-01-15T10:17:24;9.50;70.70
67050;DHT22;53955;52.442;13.284;2023-01-15T10:19:51;9.60;70.30
67050;DHT22;53955;52.442;13.284;2023-01-15T10:22:28;9.50;69.50
67050;DHT22;53955;52.442;13.284;2023-01-15T10:24:57;9.60;70.00
67050;DHT22;53955;52.442;13.284;2023-01-15T10:27:27;9.60;70.20
67050;DHT22;53955;52.442;13.284;2023-01-15T10:30:02;9.60;68.40
67050;DHT22;53955;52.442;13.284;2023-01-15T10:32:40;9.60;69.40
67050;DHT22;53955;52.442;13.284;2023-01-15T10:35:23;9.50;69.80
67050;DHT22;53955;52.442;13.284;2023-01-15T10:37:55;9.70;70.50
67050;DHT22;53955;52.442;13.284;2023-01-15T10:40:33;9.70;69.40
67050;DHT22;53955;52.442;13.284;2023-01-15T10:43:10;9.70;68.50
67050;DHT22;53955;52.442;13.284;2023-01-15T10:45:40;9.80;68.30
67050;DHT22;53955;52.442;13.284;2023-01-15T10:48:23;9.80;68.40
67050;DHT22;53955;52.442;13.284;2023-01-15T10:50:51;9.70;66.80
67050;DHT22;53955;52.442;13.284;2023-01-15T10:53:26;9.60;67.10
67050;DHT22;53955;52.442;13.284;2023-01-15T10:56:00;9.60;67.70
67050;DHT22;53955;52.442;13.284;2023-01-15T10:58:36;9.70;66.60
67050;DHT22;53955;52.442;13.284;2023-01-15T11:01:05;9.70;67.80
67050;DHT22;53955;52.442;13.284;2023-01-15T11:03:36;9.80;65.90
67050;DHT22;53955;52.442;13.284;2023-01-15T11:06:04;9.70;65.80
67050;DHT22;53955;52.442;13.284;2023-01-15T11:08:33;9.70;66.10
67050;DHT22;53955;52.442;13.284;2023-01-15T11:11:14;9.70;66.40
67050;DHT22;53955;52.442;13.284;2023-01-15T11:13:53;9.70;66.10
67050;DHT22;53955;52.442;13.284;2023-01-15T11:16:37;9.80;65.20
67050;DHT22;53955;52.442;13.284;2023-01-15T11:19:27;9.80;64.70
67050;DHT22;53955;52.442;13.284;2023-01-15T11:22:10;9.90;64.40
67050;DHT22;53955;52.442;13.284;2023-01-15T11:24:44;9.80;64.90
67050;DHT22;53955;52.442;13.284;2023-01-15T11:27:14;9.90;64.70
67050;DHT22;53955;52.442;13.284;2023-01-15T11:29:43;9.80;64.60
67050;DHT22;53955;52.442;13.284;2023-01-15T11:32:21;9.80;63.20
67050;DHT22;53955;52.442;13.284;2023-01-15T11:34:52;9.80;64.30
67050;DHT22;53955;52.442;13.284;2023-01-15T11:37:19;9.70;65.10
67050;DHT22;53955;52.442;13.284;2023-01-15T11:39:51;9.70;64.40
67050;DHT22;53955;52.442;13.284;2023-01-15T11:42:18;9.70;65.00
67050;DHT22;53955;52.442;13.284;2023-01-15T11:45:14;9.70;65.30
67050;DHT22;53955;52.442;13.284;2023-01-15T11:47:58;9.70;62.80
67050;DHT22;53955;52.442;13.284;2023-01-15T11:50:45;9.60;62.20
67050;DHT22;53955;52.442;13.284;2023-01-15T11:53:16;9.60;63.50
67050;DHT22;53955;52.442;13.284;2023-01-15T11:55:51;9.60;62.90
67050;DHT22;53955;52.442;13.284;2023-01-15T11:58:18;9.70;62.60
67050;DHT22;53955;52.442;13.284;2023-01-15T12:00:48;9.60;63.20
67050;DHT22;53955;52.442;13.284;2023-01-15T12:03:18;9.60;63.90
67050;DHT22;53955;52.442;13.284;2023-01-15T12:05:59;9.50;63.40
67050;DHT22;53955;52.442;13.284;2023-01-15T12:08:42;9.50;63.20
67050;DHT22;53955;52.442;13.284;2023-01-15T12:11:34;9.60;63.70
67050;DHT22;53955;52.442;13.284;2023-01-15T12:14:24;9.70;63.10
67050;DHT22;53955;52.442;13.284;2023-01-15T12:17:01;9.70;63.30
67050;DHT22;53955;52.442;13.284;2023-01-15T12:19:34;9.70;63.10
67050;DHT22;53955;52.442;13.284;2023-01-15T12:22:12;9.80;62.60
67050;DHT22;53955;52.442;13.284;2023-01-15T12:24:52;9.80;62.30
67050;DHT22;53955;52.442;13.284;2023-01-15T12:27:56;9.80;61.80
67050;DHT22;53955;52.442;13.284;2023-01-15T12:30:28;9.80;61.60
67050;DHT22;53955;52.442;13.284;2023-01-15T12:33:03;9.80;62.20
67050;DHT22;53955;52.442;13.284;2023-01-15T12:35:32;9.90;62.30
67050;DHT22;53955;52.442;13.284;2023-01-15T12:38:05;9.90;61.10
67050;DHT22;53955;52.442;13.284;2023-01-15T12:40:40;9.90;61.80
67050;DHT22;53955;52.442;13.284;2023-01-15T12:43:15;9.80;61.30
67050;DHT22;53955;52.442;13.284;2023-01-15T12:46:03;9.90;61.30
67050;DHT22;53955;52.442;13.284;2023-01-15T12:48:38;9.90;61.40
67050;DHT22;53955;52.442;13.284;2023-01-15T12:51:11;10.00;60.70
67050;DHT22;53955;52.442;13.284;2023-01-15T12:53:43;9.80;60.70
67050;DHT22;53955;52.442;13.284;2023-01-15T12:56:15;9.90;61.30
67050;DHT22;53955;52.442;13.284;2023-01-15T12:58:47;9.90;61.20
67050;DHT22;53955;52.442;13.284;2023-01-15T13:01:20;9.90;60.70
67050;DHT22;53955;52.442;13.284;2023-01-15T13:03:59;9.80;60.40
67050;DHT22;53955;52.442;13.284;2023-01-15T13:06:31;9.80;61.30
67050;DHT22;53955;52.442;13.284;2023-01-15T13:09:02;9.80;60.50
67050;DHT22;53955;52.442;13.284;2023-01-15T13:11:31;9.80;61.20
67050;DHT22;53955;52.442;13.284;2023-01-15T13:13:57;9.70;61.40
67050;DHT22;53955;52.442;13.284;2023-01-15T13:16:33;9.80;61.50
67050;DHT22;53955;52.442;13.284;2023-01-15T13:19:15;9.80;60.00
67050;DHT22;53955;52.442;13.284;2023-01-15T13:21:44;10.00;59.90
67050;DHT22;53955;52.442;13.284;2023-01-15T13:24:26;10.10;61.30
67050;DHT22;53955;52.442;13.284;2023-01-15T13:27:16;10.20;58.90
67050;DHT22;53955;52.442;13.284;2023-01-15T13:29:57;10.00;58.80
67050;DHT22;53955;52.442;13.284;2023-01-15T13:32:28;9.90;59.50
67050;DHT22;53955;52.442;13.284;2023-01-15T13:35:04;9.80;57.90
67050;DHT22;53955;52.442;13.284;2023-01-15T13:37:36;9.70;58.90
67050;DHT22;53955;52.442;13.284;2023-01-15T13:40:12;9.70;59.20
67050;DHT22;53955;52.442;13.284;2023-01-15T13:42:44;9.70;59.70
67050;DHT22;53955;52.442;13.284;2023-01-15T13:45:26;9.50;59.20
67050;DHT22;53955;52.442;13.284;2023-01-15T13:48:03;9.60;59.10
67050;DHT22;53955;52.442;13.284;2023-01-15T13:50:34;9.50;59.90
67050;DHT22;53955;52.442;13.284;2023-01-15T13:53:05;9.60;59.40
67050;DHT22;53955;52.442;13.284;2023-01-15T13:55:34;9.50;59.50
67050;DHT22;53955;52.442;13.284;2023-01-15T13:58:01;9.40;60.00
67050;DHT22;53955;52.442;13.284;2023-01-15T14:00:31;9.50;60.00
67050;DHT22;53955;52.442;13.284;2023-01-15T14:02:59;9.60;59.70
67050;DHT22;53955;52.442;13.284;2023-01-15T14:05:30;9.50;59.40
67050;DHT22;53955;52.442;13.284;2023-01-15T14:07:59;9.60;59.50
67050;DHT22;53955;52.442;13.284;2023-01-15T14:10:37;9.60;59.00
67050;DHT22;53955;52.442;13.284;2023-01-15T14:13:34;9.60;59.40
67050;DHT22;53955;52.442;13.284;2023-01-15T14:16:12;9.60;59.40
67050;DHT22;53955;52.442;13.284;2023-01-15T14:19:13;9.60;59.40
67050;DHT22;53955;52.442;13.284;2023-01-15T14:21:50;9.60;59.50
67050;DHT22;53955;52.442;13.284;2023-01-15T14:24:48;9.60;59.10
67050;DHT22;53955;52.442;13.284;2023-01-15T14:27:30;9.60;58.70
67050;DHT22;53955;52.442;13.284;2023-01-15T14:30:09;9.60;59.50
67050;DHT22;53955;52.442;13.284;2023-01-15T14:32:50;9.70;59.10
67050;DHT22;53955;52.442;13.284;2023-01-15T14:35:23;9.70;59.20
67050;DHT22;53955;52.442;13.284;2023-01-15T14:37:52;9.50;59.70
67050;DHT22;53955;52.442;13.284;2023-01-15T14:40:23;9.60;59.70
67050;DHT22;53955;52.442;13.284;2023-01-15T14:42:53;9.60;59.10
67050;DHT22;53955;52.442;13.284;2023-01-15T14:45:27;9.50;58.80
67050;DHT22;53955;52.442;13.284;2023-01-15T14:47:56;9.40;60.00
67050;DHT22;53955;52.442;13.284;2023-01-15T14:50:31;9.30;59.00
67050;DHT22;53955;52.442;13.284;2023-01-15T14:53:29;9.30;58.90
67050;DHT22;53955;52.442;13.284;2023-01-15T14:56:01;9.30;59.40
67050;DHT22;53955;52.442;13.284;2023-01-15T14:58:35;9.30;59.10
67050;DHT22;53955;52.442;13.284;2023-01-15T15:01:11;9.30;59.20
67050;DHT22;53955;52.442;13.284;2023-01-15T15:03:47;9.20;59.40
67050;DHT22;53955;52.442;13.284;2023-01-15T15:06:16;9.30;59.30
67050;DHT22;53955;52.442;13.284;2023-01-15T15:08:44;9.30;59.80
67050;DHT22;53955;52.442;13.284;2023-01-15T15:11:20;9.20;59.60
67050;DHT22;53955;52.442;13.284;2023-01-15T15:14:08;9.10;59.40
67050;DHT22;53955;52.442;13.284;2023-01-15T15:16:42;9.00;59.00
67050;DHT22;53955;52.442;13.284;2023-01-15T15:19:13;9.00;59.40
67050;DHT22;53955;52.442;13.284;2023-01-15T15:21:44;9.00;59.90
67050;DHT22;53955;52.442;13.284;2023-01-15T15:24:17;9.00;59.00
67050;DHT22;53955;52.442;13.284;2023-01-15T15:26:47;8.90;60.10
67050;DHT22;53955;52.442;13.284;2023-01-15T15:29:16;8.80;60.00
67050;DHT22;53955;52.442;13.284;2023-01-15T15:31:45;8.90;59.80
67050;DHT22;53955;52.442;13.284;2023-01-15T15:34:16;8.90;59.60
67050;DHT22;53955;52.442;13.284;2023-01-15T15:36:45;8.80;59.60
67050;DHT22;53955;52.442;13.284;2023-01-15T15:39:17;8.70;59.40
67050;DHT22;53955;52.442;13.284;2023-01-15T15:41:48;8.70;60.00
67050;DHT22;53955;52.442;13.284;2023-01-15T15:44:48;8.70;60.10
67050;DHT22;53955;52.442;13.284;2023-01-15T15:47:36;8.70;60.30
67050;DHT22;53955;52.442;13.284;2023-01-15T15:50:23;8.70;60.30
67050;DHT22;53955;52.442;13.284;2023-01-15T15:52:51;8.60;59.60
67050;DHT22;53955;52.442;13.284;2023-01-15T15:55:19;8.60;60.40
67050;DHT22;53955;52.442;13.284;2023-01-15T15:57:51;8.60;60.30
67050;DHT22;53955;52.442;13.284;2023-01-15T16:00:24;8.40;59.70
67050;DHT22;53955;52.442;13.284;2023-01-15T16:02:52;8.40;60.00